createdAt,value
2023-01-31T00:00:28.290Z,10.65
2023-01-31T00:03:15.563Z,19.37
2023-01-31T00:06:14.710Z,13.00
2023-01-31T00:09:05.455Z,16.30
2023-01-31T00:11:53.279Z,13.95
2023-01-31T00:14:40.681Z,14.23
2023-01-31T00:17:27.972Z,12.20
2023-01-31T00:20:15.517Z,13.48
2023-01-31T00:23:02.956Z,13.03
2023-01-31T00:25:50.177Z,15.45
2023-01-31T00:28:37.824Z,13.78
2023-01-31T00:31:27.681Z,12.15
2023-01-31T00:34:14.791Z,11.35
2023-01-31T00:37:01.952Z,10.05
2023-01-31T00:39:49.533Z,12.82
2023-01-31T00:42:36.937Z,15.58
2023-01-31T00:45:23.862Z,16.65
2023-01-31T00:48:11.356Z,13.38
2023-01-31T00:50:58.731Z,10.88
2023-01-31T00:53:46.552Z,22.00
2023-01-31T00:56:34.627Z,18.50
2023-01-31T00:59:25.065Z,11.63
2023-01-31T01:02:13.504Z,9.03
2023-01-31T01:05:00.781Z,8.95
2023-01-31T01:07:48.734Z,7.95
2023-01-31T01:10:36.638Z,11.43
2023-01-31T01:13:23.757Z,5.47
2023-01-31T01:16:13.513Z,8.10
2023-01-31T01:19:02.065Z,9.10
2023-01-31T01:21:49.594Z,6.12
2023-01-31T01:24:36.937Z,14.58
2023-01-31T01:27:24.056Z,11.65
2023-01-31T01:30:12.238Z,12.40
2023-01-31T01:32:59.670Z,16.15
2023-01-31T01:35:46.671Z,10.35
2023-01-31T01:38:37.906Z,17.07
2023-01-31T01:41:25.331Z,8.78
2023-01-31T01:44:44.485Z,12.23
2023-01-31T01:47:34.841Z,13.75
2023-01-31T01:50:31.297Z,13.08
2023-01-31T01:53:21.605Z,15.70
2023-01-31T01:56:14.566Z,15.00
2023-01-31T01:59:16.938Z,12.07
2023-01-31T02:02:05.341Z,17.80
2023-01-31T02:04:53.678Z,13.48
2023-01-31T02:07:41.884Z,18.10
2023-01-31T02:10:35.094Z,15.20
2023-01-31T02:13:22.934Z,19.57
2023-01-31T02:16:10.925Z,14.33
2023-01-31T02:18:59.774Z,13.58
2023-01-31T02:24:23.944Z,27.55
2023-01-31T02:27:23.277Z,21.15
2023-01-31T02:30:39.014Z,20.02
2023-01-31T02:33:35.200Z,19.17
2023-01-31T02:36:31.188Z,19.10
2023-01-31T02:39:27.388Z,16.82
2023-01-31T02:42:35.817Z,18.27
2023-01-31T02:45:34.270Z,17.67
2023-01-31T02:48:35.987Z,17.92
2023-01-31T02:51:32.086Z,21.02
2023-01-31T02:54:26.627Z,19.20
2023-01-31T02:57:13.808Z,20.90
2023-01-31T03:00:01.859Z,14.35
2023-01-31T03:02:49.011Z,22.10
2023-01-31T03:05:36.604Z,23.27
2023-01-31T03:08:23.448Z,18.42
2023-01-31T03:11:11.340Z,23.15
2023-01-31T03:14:13.372Z,28.60
2023-01-31T03:17:26.825Z,16.77
2023-01-31T03:20:22.959Z,26.12
2023-01-31T03:23:13.221Z,19.73
2023-01-31T03:26:01.802Z,17.48
2023-01-31T03:28:52.073Z,19.90
2023-01-31T03:31:45.331Z,21.17
2023-01-31T03:34:33.053Z,28.45
2023-01-31T03:37:46.945Z,26.07
2023-01-31T03:40:39.552Z,21.55
2023-01-31T03:43:29.853Z,26.27
2023-01-31T03:46:22.418Z,21.20
2023-01-31T03:49:11.947Z,17.35
2023-01-31T03:52:08.607Z,20.70
2023-01-31T03:55:01.966Z,30.27
2023-01-31T03:57:52.599Z,23.73
2023-01-31T04:00:42.592Z,17.25
2023-01-31T04:03:38.651Z,22.60
2023-01-31T04:06:25.945Z,17.52
2023-01-31T04:09:13.381Z,24.12
2023-01-31T04:12:04.131Z,20.75
2023-01-31T04:14:51.123Z,17.67
2023-01-31T04:17:38.809Z,22.85
2023-01-31T04:20:26.397Z,28.02
2023-01-31T04:23:13.364Z,25.32
2023-01-31T04:26:00.369Z,33.13
2023-01-31T04:28:47.427Z,21.77
2023-01-31T04:31:34.503Z,23.10
2023-01-31T04:34:21.746Z,22.95
2023-01-31T04:37:09.133Z,22.90
2023-01-31T04:39:56.245Z,23.70
2023-01-31T04:42:43.675Z,22.87
2023-01-31T04:45:31.698Z,21.20
2023-01-31T04:48:18.975Z,28.35
2023-01-31T04:51:06.489Z,20.80
2023-01-31T04:53:53.620Z,31.57
2023-01-31T04:56:40.938Z,26.57
2023-01-31T04:59:28.009Z,21.95
2023-01-31T05:02:15.236Z,19.00
2023-01-31T05:05:02.750Z,26.10
2023-01-31T05:07:50.043Z,21.37
2023-01-31T05:10:37.277Z,23.22
2023-01-31T05:13:25.459Z,29.63
2023-01-31T05:16:13.333Z,21.50
2023-01-31T05:19:00.538Z,21.48
2023-01-31T05:21:58.298Z,21.40
2023-01-31T05:24:45.382Z,18.48
2023-01-31T05:27:32.427Z,27.60
2023-01-31T05:30:19.936Z,22.90
2023-01-31T05:33:07.123Z,20.57
2023-01-31T05:35:54.554Z,23.60
2023-01-31T05:38:41.589Z,19.52
2023-01-31T05:41:28.652Z,24.25
2023-01-31T05:44:16.413Z,20.80
2023-01-31T05:47:03.914Z,16.45
2023-01-31T05:49:51.094Z,22.40
2023-01-31T05:52:38.388Z,17.65
2023-01-31T05:55:25.982Z,22.05
2023-01-31T05:58:13.213Z,23.02
2023-01-31T06:01:01.041Z,23.22
2023-01-31T06:03:48.578Z,16.17
2023-01-31T06:06:35.909Z,18.95
2023-01-31T06:09:23.324Z,19.73
2023-01-31T06:12:16.146Z,26.07
2023-01-31T06:15:03.981Z,25.62
2023-01-31T06:17:51.003Z,24.90
2023-01-31T06:20:38.860Z,24.95
2023-01-31T06:23:26.383Z,26.48
2023-01-31T06:26:14.427Z,17.35
2023-01-31T06:29:01.660Z,23.92
2023-01-31T06:31:49.155Z,25.30
2023-01-31T06:34:36.106Z,20.32
2023-01-31T06:37:23.503Z,16.90
2023-01-31T06:40:12.713Z,25.72
2023-01-31T06:43:00.440Z,19.57
2023-01-31T06:45:49.333Z,27.50
2023-01-31T06:48:36.792Z,21.85
2023-01-31T06:51:23.867Z,24.85
2023-01-31T06:54:11.327Z,27.98
2023-01-31T06:56:58.499Z,20.27
2023-01-31T06:59:45.509Z,15.53
2023-01-31T07:02:32.805Z,16.30
2023-01-31T07:05:21.194Z,22.17
2023-01-31T07:08:08.569Z,30.80
2023-01-31T07:10:55.608Z,27.40
2023-01-31T07:13:42.376Z,25.08
2023-01-31T07:16:30.436Z,22.93
2023-01-31T07:19:17.845Z,19.27
2023-01-31T07:22:05.279Z,39.78
2023-01-31T07:24:52.783Z,53.25
2023-01-31T07:27:39.904Z,68.65
2023-01-31T07:30:27.148Z,44.53
2023-01-31T07:33:14.821Z,47.53
2023-01-31T07:36:06.472Z,39.95
2023-01-31T07:38:58.295Z,29.10
2023-01-31T07:41:45.902Z,29.45
2023-01-31T07:44:33.209Z,25.80
2023-01-31T07:47:20.292Z,46.05
2023-01-31T07:50:07.730Z,33.63
2023-01-31T07:52:55.032Z,20.75
2023-01-31T07:55:42.421Z,20.52
2023-01-31T07:58:30.012Z,27.85
2023-01-31T08:01:38.229Z,22.82
2023-01-31T08:04:25.570Z,19.98
2023-01-31T08:07:13.930Z,25.32
2023-01-31T08:10:00.921Z,13.70
2023-01-31T08:12:50.122Z,24.40
2023-01-31T08:15:36.923Z,18.57
2023-01-31T08:18:25.132Z,29.15
2023-01-31T08:21:14.293Z,29.20
2023-01-31T08:24:02.526Z,17.07
2023-01-31T08:26:49.546Z,21.00
2023-01-31T08:29:36.711Z,20.12
2023-01-31T08:32:23.758Z,14.43
2023-01-31T08:35:11.128Z,15.35
2023-01-31T08:38:10.419Z,19.92
2023-01-31T08:40:46.730Z,24.47
2023-01-31T08:43:42.610Z,17.92
2023-01-31T08:46:23.742Z,21.62
2023-01-31T08:49:11.398Z,21.62
2023-01-31T08:51:58.848Z,21.02
2023-01-31T08:54:46.168Z,13.68
2023-01-31T08:57:33.611Z,20.30
2023-01-31T09:00:21.932Z,22.93
2023-01-31T09:03:10.510Z,27.20
2023-01-31T09:06:00.180Z,18.32
2023-01-31T09:08:47.720Z,20.97
2023-01-31T09:11:35.924Z,23.73
2023-01-31T09:14:23.172Z,18.60
2023-01-31T09:17:10.773Z,24.63
2023-01-31T09:19:58.826Z,23.05
2023-01-31T09:22:46.494Z,43.90
2023-01-31T09:25:45.736Z,43.65
2023-01-31T09:28:24.741Z,39.58
2023-01-31T09:31:17.279Z,31.20
2023-01-31T09:34:04.561Z,34.43
2023-01-31T09:36:51.799Z,27.65
2023-01-31T09:39:38.792Z,24.43
2023-01-31T09:42:32.041Z,27.65
2023-01-31T09:45:34.695Z,33.95
2023-01-31T09:48:25.471Z,31.77
2023-01-31T09:51:15.212Z,31.07
2023-01-31T09:54:05.243Z,41.18
2023-01-31T09:57:20.574Z,36.93
2023-01-31T10:00:26.362Z,29.40
2023-01-31T10:03:25.771Z,22.35
2023-01-31T10:06:41.297Z,28.02
2023-01-31T10:09:33.005Z,28.52
2023-01-31T10:12:29.362Z,25.92
2023-01-31T10:15:32.825Z,34.53
2023-01-31T10:18:29.275Z,35.40
2023-01-31T10:21:23.094Z,37.10
2023-01-31T10:24:31.970Z,48.52
2023-01-31T10:27:29.028Z,35.88
2023-01-31T10:30:20.803Z,26.57
2023-01-31T10:33:26.159Z,27.40
2023-01-31T10:36:16.429Z,17.75
2023-01-31T10:39:18.001Z,21.97
2023-01-31T10:42:24.480Z,18.25
2023-01-31T10:45:20.744Z,28.70
2023-01-31T10:48:24.061Z,23.57
2023-01-31T10:51:31.074Z,24.85
2023-01-31T10:54:36.075Z,22.10
2023-01-31T10:57:24.194Z,22.10
2023-01-31T11:00:20.432Z,22.95
2023-01-31T11:03:07.979Z,20.37
2023-01-31T11:06:00.429Z,20.45
2023-01-31T11:08:50.105Z,24.30
2023-01-31T11:11:40.399Z,24.80
2023-01-31T11:14:29.468Z,27.20
2023-01-31T11:17:19.412Z,26.97
2023-01-31T11:20:07.354Z,21.12
2023-01-31T11:22:56.076Z,25.10
2023-01-31T11:25:51.651Z,20.32
2023-01-31T11:28:42.574Z,19.95
2023-01-31T11:31:32.909Z,20.95
2023-01-31T11:34:25.178Z,19.37
2023-01-31T11:37:18.127Z,20.82
2023-01-31T11:40:19.712Z,26.85
2023-01-31T11:43:09.713Z,17.27
2023-01-31T11:46:01.873Z,16.77
2023-01-31T11:48:48.875Z,16.45
2023-01-31T11:51:36.324Z,22.48
2023-01-31T11:54:27.172Z,18.57
2023-01-31T11:57:19.982Z,19.95
2023-01-31T12:00:24.929Z,20.00
2023-01-31T12:03:18.060Z,18.50
2023-01-31T12:06:07.713Z,19.52
2023-01-31T12:08:56.649Z,14.15
2023-01-31T12:11:52.597Z,14.15
2023-01-31T12:14:42.132Z,13.30
2023-01-31T12:17:32.160Z,21.10
2023-01-31T12:20:28.390Z,14.98
2023-01-31T12:23:28.772Z,16.00
2023-01-31T12:26:35.912Z,18.55
2023-01-31T12:29:28.968Z,13.55
2023-01-31T12:32:35.281Z,16.80
2023-01-31T12:35:25.911Z,14.60
2023-01-31T12:38:33.954Z,20.50
2023-01-31T12:41:24.081Z,17.75
2023-01-31T12:44:43.321Z,17.32
2023-01-31T12:47:36.989Z,18.45
2023-01-31T12:51:00.569Z,19.92
2023-01-31T12:54:16.836Z,17.25
2023-01-31T12:57:25.206Z,11.12
2023-01-31T13:00:30.496Z,24.95
2023-01-31T13:03:41.680Z,11.03
2023-01-31T13:06:34.823Z,13.65
2023-01-31T13:09:27.222Z,18.85
2023-01-31T13:12:22.110Z,16.73
2023-01-31T13:15:18.091Z,11.93
2023-01-31T13:18:06.866Z,16.73
2023-01-31T13:20:57.005Z,14.58
2023-01-31T13:23:50.279Z,23.30
2023-01-31T13:26:49.276Z,18.12
2023-01-31T13:29:48.183Z,22.35
2023-01-31T13:32:44.043Z,18.80
2023-01-31T13:35:42.564Z,20.30
2023-01-31T13:38:32.830Z,20.32
2023-01-31T13:41:28.664Z,14.58
2023-01-31T13:44:17.309Z,18.25
2023-01-31T13:47:07.760Z,17.92
2023-01-31T13:49:57.873Z,20.00
2023-01-31T13:52:52.664Z,16.23
2023-01-31T13:55:43.166Z,13.68
2023-01-31T13:58:34.394Z,13.83
2023-01-31T14:01:23.887Z,18.45
2023-01-31T14:04:17.503Z,15.83
2023-01-31T14:07:08.137Z,19.32
2023-01-31T14:10:01.179Z,29.20
2023-01-31T14:12:48.708Z,20.05
2023-01-31T14:15:51.007Z,20.37
2023-01-31T14:18:43.204Z,23.57
2023-01-31T14:21:33.754Z,21.33
2023-01-31T14:24:24.497Z,25.12
2023-01-31T14:27:25.601Z,23.50
2023-01-31T14:30:24.595Z,16.12
2023-01-31T14:33:23.725Z,20.12
2023-01-31T14:36:33.349Z,20.60
2023-01-31T14:39:28.611Z,24.05
2023-01-31T14:42:42.085Z,17.55
2023-01-31T14:46:05.568Z,19.50
2023-01-31T14:49:07.811Z,16.82
2023-01-31T14:52:17.759Z,24.63
2023-01-31T14:55:23.634Z,23.00
2023-01-31T14:58:16.551Z,23.98
2023-01-31T15:01:06.997Z,21.27
2023-01-31T15:04:00.050Z,23.67
2023-01-31T15:06:49.944Z,23.73
2023-01-31T15:09:40.132Z,21.82
2023-01-31T15:12:53.191Z,30.48
2023-01-31T15:15:41.070Z,26.90
2023-01-31T15:18:29.687Z,23.50
2023-01-31T15:21:19.981Z,30.30
2023-01-31T15:24:09.713Z,20.37
2023-01-31T15:26:58.557Z,22.52
2023-01-31T15:30:00.837Z,28.73
2023-01-31T15:32:53.973Z,28.57
2023-01-31T15:35:52.855Z,25.43
2023-01-31T15:38:46.146Z,32.08
2023-01-31T15:41:44.766Z,22.05
2023-01-31T15:44:32.041Z,34.58
2023-01-31T15:47:23.884Z,25.62
2023-01-31T15:50:22.734Z,28.50
2023-01-31T15:53:15.569Z,31.37
2023-01-31T15:56:04.306Z,29.52
2023-01-31T15:58:54.898Z,24.35
2023-01-31T16:01:50.968Z,27.85
2023-01-31T16:04:40.970Z,21.02
2023-01-31T16:07:31.555Z,27.35
2023-01-31T16:10:19.114Z,22.93
2023-01-31T16:13:07.530Z,18.12
2023-01-31T16:15:55.229Z,25.08
2023-01-31T16:18:51.513Z,26.27
2023-01-31T16:21:42.078Z,19.30
2023-01-31T16:24:29.139Z,25.72
2023-01-31T16:27:17.787Z,20.43
2023-01-31T16:30:05.375Z,23.57
2023-01-31T16:32:52.385Z,17.82
2023-01-31T16:35:39.460Z,19.85
2023-01-31T16:38:28.050Z,17.80
2023-01-31T16:41:15.921Z,23.42
2023-01-31T16:44:03.763Z,21.50
2023-01-31T16:46:52.343Z,16.42
2023-01-31T16:49:39.357Z,17.42
2023-01-31T16:52:29.228Z,33.70
2023-01-31T16:55:22.011Z,14.23
2023-01-31T16:58:13.451Z,21.10
2023-01-31T17:01:15.962Z,18.57
2023-01-31T17:04:11.828Z,22.22
2023-01-31T17:07:09.145Z,14.68
2023-01-31T17:09:59.803Z,17.77
2023-01-31T17:12:47.066Z,16.90
2023-01-31T17:15:35.472Z,17.57
2023-01-31T17:18:23.068Z,20.02
2023-01-31T17:21:11.275Z,17.27
2023-01-31T17:23:59.130Z,15.35
2023-01-31T17:26:46.493Z,13.18
2023-01-31T17:29:33.513Z,15.40
2023-01-31T17:32:22.582Z,16.20
2023-01-31T17:35:32.450Z,19.45
2023-01-31T17:38:19.715Z,14.18
2023-01-31T17:41:06.972Z,15.53
2023-01-31T17:43:54.193Z,14.05
2023-01-31T17:46:41.511Z,11.45
2023-01-31T17:49:29.080Z,13.72
2023-01-31T17:52:16.501Z,11.83
2023-01-31T17:55:03.737Z,13.08
2023-01-31T17:57:51.638Z,12.65
2023-01-31T18:00:39.150Z,10.82
2023-01-31T18:03:27.296Z,14.25
2023-01-31T18:06:14.300Z,11.40
2023-01-31T18:09:08.468Z,10.00
2023-01-31T18:11:55.475Z,13.13
2023-01-31T18:14:42.541Z,15.95
2023-01-31T18:17:29.801Z,8.78
2023-01-31T18:20:19.109Z,9.90
2023-01-31T18:23:07.000Z,9.05
2023-01-31T18:25:54.152Z,6.35
2023-01-31T18:28:41.110Z,12.30
2023-01-31T18:31:28.356Z,7.62
2023-01-31T18:34:15.542Z,9.60
2023-01-31T18:37:06.478Z,9.40
2023-01-31T18:39:54.357Z,11.08
2023-01-31T18:42:41.543Z,6.47
2023-01-31T18:45:28.463Z,9.13
2023-01-31T18:48:16.422Z,8.03
2023-01-31T18:51:07.537Z,4.67
2023-01-31T18:53:55.242Z,10.53
2023-01-31T18:56:43.393Z,7.20
2023-01-31T18:59:30.717Z,8.23
2023-01-31T19:02:17.816Z,11.45
2023-01-31T19:05:05.370Z,8.35
2023-01-31T19:07:52.424Z,6.25
2023-01-31T19:10:39.679Z,7.10
2023-01-31T19:13:27.523Z,7.50
2023-01-31T19:16:20.528Z,6.95
2023-01-31T19:19:08.960Z,6.50
2023-01-31T19:21:56.190Z,8.28
2023-01-31T19:24:43.310Z,8.85
2023-01-31T19:27:30.480Z,9.85
2023-01-31T19:30:17.914Z,6.65
2023-01-31T19:33:04.963Z,5.85
2023-01-31T19:35:53.171Z,8.58
2023-01-31T19:38:41.367Z,6.92
2023-01-31T19:41:29.328Z,7.75
2023-01-31T19:44:16.460Z,5.28
2023-01-31T19:47:03.834Z,6.42
2023-01-31T19:49:51.062Z,6.80
2023-01-31T19:52:38.276Z,5.17
2023-01-31T19:55:25.248Z,5.80
2023-01-31T19:58:12.617Z,8.48
2023-01-31T20:01:01.821Z,7.45
2023-01-31T20:03:50.043Z,7.50
2023-01-31T20:06:37.087Z,6.22
2023-01-31T20:09:24.317Z,5.47
2023-01-31T20:12:12.260Z,4.78
2023-01-31T20:14:59.318Z,5.78
2023-01-31T20:17:46.458Z,7.10
2023-01-31T20:20:33.520Z,4.95
2023-01-31T20:23:21.239Z,5.15
2023-01-31T20:26:08.530Z,6.20
2023-01-31T20:28:55.850Z,16.97
2023-01-31T20:31:43.289Z,14.68
2023-01-31T20:34:30.493Z,9.73
2023-01-31T20:37:17.741Z,7.42
2023-01-31T20:40:05.214Z,6.70
2023-01-31T20:42:52.386Z,8.35
2023-01-31T20:45:39.810Z,7.45
2023-01-31T20:48:27.179Z,4.08
2023-01-31T20:51:14.476Z,6.65
2023-01-31T20:54:02.811Z,5.62
2023-01-31T20:56:51.882Z,6.28
2023-01-31T20:59:39.805Z,6.87
2023-01-31T21:02:26.895Z,5.22
2023-01-31T21:05:14.345Z,6.47
2023-01-31T21:08:01.643Z,6.55
2023-01-31T21:10:52.836Z,8.13
2023-01-31T21:13:41.884Z,8.28
2023-01-31T21:16:29.445Z,7.05
2023-01-31T21:19:17.165Z,6.90
2023-01-31T21:22:04.110Z,8.65
2023-01-31T21:24:51.306Z,6.90
2023-01-31T21:27:38.320Z,8.50
2023-01-31T21:30:25.590Z,7.58
2023-01-31T21:33:12.665Z,8.55
2023-01-31T21:36:00.468Z,7.22
2023-01-31T21:38:48.149Z,7.92
2023-01-31T21:41:53.269Z,6.55
2023-01-31T21:44:40.199Z,6.87
2023-01-31T21:47:28.993Z,6.05
2023-01-31T21:50:16.388Z,6.15
2023-01-31T21:53:03.969Z,5.37
2023-01-31T21:55:51.261Z,6.30
2023-01-31T21:58:39.565Z,6.22
2023-01-31T22:01:32.456Z,21.07
2023-01-31T22:04:23.264Z,10.72
2023-01-31T22:07:10.653Z,5.78
2023-01-31T22:09:57.928Z,5.87
2023-01-31T22:12:45.303Z,6.60
2023-01-31T22:15:32.806Z,6.78
2023-01-31T22:18:20.241Z,10.88
2023-01-31T22:21:13.503Z,6.35
2023-01-31T22:24:02.142Z,6.92
2023-01-31T22:26:49.146Z,9.63
2023-01-31T22:29:36.198Z,7.95
2023-01-31T22:32:23.612Z,9.80
2023-01-31T22:35:10.905Z,10.68
2023-01-31T22:37:57.844Z,6.35
2023-01-31T22:40:45.728Z,5.97
2023-01-31T22:43:34.672Z,10.53
2023-01-31T22:46:24.606Z,7.50
2023-01-31T22:49:11.710Z,11.78
2023-01-31T22:51:58.972Z,6.78
2023-01-31T22:54:46.265Z,5.97
2023-01-31T22:57:33.730Z,6.12
2023-01-31T23:00:21.358Z,8.65
2023-01-31T23:03:09.345Z,11.55
2023-01-31T23:05:56.579Z,10.50
2023-01-31T23:08:44.283Z,7.95
2023-01-31T23:11:31.719Z,7.83
2023-01-31T23:14:19.952Z,9.13
2023-01-31T23:17:24.550Z,9.05
2023-01-31T23:20:14.444Z,6.42
2023-01-31T23:23:01.508Z,8.08
2023-01-31T23:25:48.892Z,6.78
2023-01-31T23:28:36.353Z,6.12
2023-01-31T23:31:23.501Z,7.65
2023-01-31T23:34:10.410Z,4.78
2023-01-31T23:36:57.607Z,9.58
2023-01-31T23:39:44.782Z,7.12
2023-01-31T23:42:32.220Z,7.40
2023-01-31T23:45:19.562Z,8.20
2023-01-31T23:48:06.929Z,5.95
2023-01-31T23:50:53.944Z,7.62
2023-01-31T23:53:41.364Z,6.87
2023-01-31T23:56:28.541Z,7.62
2023-01-31T23:59:15.499Z,10.43
